sensor_id;sensor_type;location;lat;lon;timestamp;pressure;altitude;pressure_sealevel;temperature;humidity
21574;BME280;10948;48.706;9.258;2023-04-27T00:00:34;97842.47;;;10.65;85.12
21574;BME280;10948;48.706;9.258;2023-04-27T00:03:00;97840.03;;;10.62;85.40
21574;BME280;10948;48.706;9.258;2023-04-27T00:05:29;97842.09;;;10.57;84.61
21574;BME280;10948;48.706;9.258;2023-04-27T00:07:55;97840.41;;;10.56;85.04
21574;BME280;10948;48.706;9.258;2023-04-27T00:10:20;97846.88;;;10.49;85.29
21574;BME280;10948;48.706;9.258;2023-04-27T00:12:45;97846.72;;;10.52;85.14
21574;BME280;10948;48.706;9.258;2023-04-27T00:15:10;97841.53;;;10.52;85.50
21574;BME280;10948;48.706;9.258;2023-04-27T00:17:36;97839.34;;;10.45;85.22
21574;BME280;10948;48.706;9.258;2023-04-27T00:20:01;97837.03;;;10.40;85.37
21574;BME280;10948;48.706;9.258;2023-04-27T00:22:29;97836.88;;;10.43;85.54
21574;BME280;10948;48.706;9.258;2023-04-27T00:24:54;97834.69;;;10.36;85.06
21574;BME280;10948;48.706;9.258;2023-04-27T00:27:19;97831.47;;;10.46;84.96
21574;BME280;10948;48.706;9.258;2023-04-27T00:29:44;97829.59;;;10.48;84.46
21574;BME280;10948;48.706;9.258;2023-04-27T00:32:10;97828.13;;;10.44;85.20
21574;BME280;10948;48.706;9.258;2023-04-27T00:34:35;97818.84;;;10.54;84.85
21574;BME280;10948;48.706;9.258;2023-04-27T00:37:01;97828.13;;;10.44;85.32
21574;BME280;10948;48.706;9.258;2023-04-27T00:39:26;97829.59;;;10.48;85.69
21574;BME280;10948;48.706;9.258;2023-04-27T00:41:52;97832.56;;;10.42;86.12
21574;BME280;10948;48.706;9.258;2023-04-27T00:44:23;97819.75;;;10.39;86.35
21574;BME280;10948;48.706;9.258;2023-04-27T00:46:49;97822.97;;;10.29;86.27
21574;BME280;10948;48.706;9.258;2023-04-27T00:49:14;97819.56;;;10.42;86.01
21574;BME280;10948;48.706;9.258;2023-04-27T00:51:40;97812.50;;;10.30;86.18
21574;BME280;10948;48.706;9.258;2023-04-27T00:54:05;97805.19;;;10.21;87.55
21574;BME280;10948;48.706;9.258;2023-04-27T00:56:30;97811.38;;;10.34;89.45
21574;BME280;10948;48.706;9.258;2023-04-27T00:58:56;97809.22;;;10.27;90.29
21574;BME280;10948;48.706;9.258;2023-04-27T01:01:21;97811.56;;;10.31;90.06
21574;BME280;10948;48.706;9.258;2023-04-27T01:03:47;97814.44;;;10.27;89.30
21574;BME280;10948;48.706;9.258;2023-04-27T01:06:12;97812.84;;;10.24;88.50
21574;BME280;10948;48.706;9.258;2023-04-27T01:08:38;97812.03;;;10.08;89.20
21574;BME280;10948;48.706;9.258;2023-04-27T01:11:03;97811.88;;;10.11;89.13
21574;BME280;10948;48.706;9.258;2023-04-27T01:13:28;97812.41;;;10.16;89.60
21574;BME280;10948;48.706;9.258;2023-04-27T01:15:53;97807.34;;;9.99;89.69
21574;BME280;10948;48.706;9.258;2023-04-27T01:18:18;97814.94;;;10.02;89.25
21574;BME280;10948;48.706;9.258;2023-04-27T01:20:44;97822.09;;;10.14;88.62
21574;BME280;10948;48.706;9.258;2023-04-27T01:23:12;97812.81;;;10.10;88.34
21574;BME280;10948;48.706;9.258;2023-04-27T01:25:38;97818.47;;;10.01;88.62
21574;BME280;10948;48.706;9.258;2023-04-27T01:28:03;97821.00;;;10.03;89.51
21574;BME280;10948;48.706;9.258;2023-04-27T01:30:28;97821.16;;;10.15;88.46
21574;BME280;10948;48.706;9.258;2023-04-27T01:32:54;97821.84;;;10.03;90.40
21574;BME280;10948;48.706;9.258;2023-04-27T01:35:20;97814.63;;;10.08;90.21
21574;BME280;10948;48.706;9.258;2023-04-27T01:37:45;97822.63;;;10.05;91.49
21574;BME280;10948;48.706;9.258;2023-04-27T01:40:11;97823.38;;;10.07;91.00
21574;BME280;10948;48.706;9.258;2023-04-27T01:42:37;97822.63;;;10.05;90.75
21574;BME280;10948;48.706;9.258;2023-04-27T01:45:02;97816.50;;;9.91;91.72
21574;BME280;10948;48.706;9.258;2023-04-27T01:47:28;97812.69;;;9.96;91.95
21574;BME280;10948;48.706;9.258;2023-04-27T01:49:53;97813.28;;;10.01;90.85
21574;BME280;10948;48.706;9.258;2023-04-27T01:52:18;97816.81;;;10.00;91.86
21574;BME280;10948;48.706;9.258;2023-04-27T01:54:43;97811.38;;;9.89;92.42
21574;BME280;10948;48.706;9.258;2023-04-27T01:57:09;97818.81;;;9.95;93.36
21574;BME280;10948;48.706;9.258;2023-04-27T01:59:34;97818.81;;;9.95;93.77
21574;BME280;10948;48.706;9.258;2023-04-27T02:01:59;97827.53;;;9.94;94.13
21574;BME280;10948;48.706;9.258;2023-04-27T02:04:24;97819.16;;;9.89;93.83
21574;BME280;10948;48.706;9.258;2023-04-27T02:06:50;97832.00;;;9.77;94.32
21574;BME280;10948;48.706;9.258;2023-04-27T02:09:15;97818.84;;;9.80;94.88
21574;BME280;10948;48.706;9.258;2023-04-27T02:11:40;97819.03;;;9.77;95.25
21574;BME280;10948;48.706;9.258;2023-04-27T02:14:05;97826.22;;;9.72;95.53
21574;BME280;10948;48.706;9.258;2023-04-27T02:16:31;97830.09;;;9.80;95.09
21574;BME280;10948;48.706;9.258;2023-04-27T02:18:56;97833.75;;;9.76;95.95
21574;BME280;10948;48.706;9.258;2023-04-27T02:21:23;97834.63;;;9.77;95.35
21574;BME280;10948;48.706;9.258;2023-04-27T02:23:48;97837.41;;;9.58;96.49
21574;BME280;10948;48.706;9.258;2023-04-27T02:26:20;97834.47;;;9.64;95.92
21574;BME280;10948;48.706;9.258;2023-04-27T02:28:46;97839.00;;;9.61;95.50
21574;BME280;10948;48.706;9.258;2023-04-27T02:31:11;97831.75;;;9.66;94.69
21574;BME280;10948;48.706;9.258;2023-04-27T02:33:37;97834.38;;;9.66;93.84
21574;BME280;10948;48.706;9.258;2023-04-27T02:36:03;97834.63;;;9.61;94.11
21574;BME280;10948;48.706;9.258;2023-04-27T02:38:28;97845.00;;;9.61;94.64
21574;BME280;10948;48.706;9.258;2023-04-27T02:40:53;97847.63;;;9.61;94.84
21574;BME280;10948;48.706;9.258;2023-04-27T02:43:20;97845.28;;;9.57;95.74
21574;BME280;10948;48.706;9.258;2023-04-27T02:45:45;97846.88;;;9.59;96.83
21574;BME280;10948;48.706;9.258;2023-04-27T02:48:10;97855.06;;;9.67;96.84
21574;BME280;10948;48.706;9.258;2023-04-27T02:50:39;97848.34;;;9.63;96.57
21574;BME280;10948;48.706;9.258;2023-04-27T02:53:04;97848.34;;;9.63;97.00
21574;BME280;10948;48.706;9.258;2023-04-27T02:55:30;97844.75;;;9.66;96.15
21574;BME280;10948;48.706;9.258;2023-04-27T02:57:55;97841.50;;;9.62;96.06
21574;BME280;10948;48.706;9.258;2023-04-27T03:00:21;97847.19;;;9.53;95.74
21574;BME280;10948;48.706;9.258;2023-04-27T03:02:46;97851.47;;;9.54;95.74
21574;BME280;10948;48.706;9.258;2023-04-27T03:05:12;97853.38;;;9.35;97.24
21574;BME280;10948;48.706;9.258;2023-04-27T03:07:37;97861.25;;;9.49;96.98
21574;BME280;10948;48.706;9.258;2023-04-27T03:10:02;97847.03;;;9.56;96.33
21574;BME280;10948;48.706;9.258;2023-04-27T03:12:28;97856.06;;;9.49;97.65
21574;BME280;10948;48.706;9.258;2023-04-27T03:14:53;97849.06;;;9.51;97.37
21574;BME280;10948;48.706;9.258;2023-04-27T03:17:18;97849.72;;;9.55;97.85
21574;BME280;10948;48.706;9.258;2023-04-27T03:19:45;97847.03;;;9.56;97.18
21574;BME280;10948;48.706;9.258;2023-04-27T03:22:11;97851.31;;;9.57;97.45
21574;BME280;10948;48.706;9.258;2023-04-27T03:24:36;97852.56;;;9.50;98.50
21574;BME280;10948;48.706;9.258;2023-04-27T03:27:01;97847.38;;;9.50;98.68
21574;BME280;10948;48.706;9.258;2023-04-27T03:29:26;97847.72;;;9.44;98.65
21574;BME280;10948;48.706;9.258;2023-04-27T03:31:52;97859.59;;;9.48;98.95
21574;BME280;10948;48.706;9.258;2023-04-27T03:34:17;97857.00;;;9.48;99.00
21574;BME280;10948;48.706;9.258;2023-04-27T03:36:44;97854.06;;;9.54;100.00
21574;BME280;10948;48.706;9.258;2023-04-27T03:39:10;97851.38;;;9.40;99.51
21574;BME280;10948;48.706;9.258;2023-04-27T03:41:35;97843.25;;;9.46;98.96
21574;BME280;10948;48.706;9.258;2023-04-27T03:44:00;97843.34;;;9.45;100.00
21574;BME280;10948;48.706;9.258;2023-04-27T03:46:26;97848.03;;;9.38;100.00
21574;BME280;10948;48.706;9.258;2023-04-27T03:48:51;97849.84;;;9.36;100.00
21574;BME280;10948;48.706;9.258;2023-04-27T03:51:16;97848.59;;;9.43;100.00
21574;BME280;10948;48.706;9.258;2023-04-27T03:53:42;97850.31;;;9.44;100.00
21574;BME280;10948;48.706;9.258;2023-04-27T03:56:07;97860.09;;;9.39;100.00
21574;BME280;10948;48.706;9.258;2023-04-27T03:58:32;97854.16;;;9.37;100.00
21574;BME280;10948;48.706;9.258;2023-04-27T04:00:58;97859.09;;;9.42;100.00
21574;BME280;10948;48.706;9.258;2023-04-27T04:03:23;97858.91;;;9.45;100.00
21574;BME280;10948;48.706;9.258;2023-04-27T04:05:49;97856.19;;;9.48;100.00
21574;BME280;10948;48.706;9.258;2023-04-27T04:08:14;97853.22;;;9.38;100.00
21574;BME280;10948;48.706;9.258;2023-04-27T04:10:40;97863.63;;;9.54;100.00
21574;BME280;10948;48.706;9.258;2023-04-27T04:13:05;97855.41;;;9.30;100.00
21574;BME280;10948;48.706;9.258;2023-04-27T04:15:31;97861.09;;;9.37;100.00
21574;BME280;10948;48.706;9.258;2023-04-27T04:17:56;97863.75;;;9.35;100.00
21574;BME280;10948;48.706;9.258;2023-04-27T04:20:21;97860.50;;;9.32;100.00
21574;BME280;10948;48.706;9.258;2023-04-27T04:22:47;97859.16;;;9.40;100.00
21574;BME280;10948;48.706;9.258;2023-04-27T04:25:12;97856.75;;;9.53;100.00
21574;BME280;10948;48.706;9.258;2023-04-27T04:27:37;97863.72;;;9.52;100.00
21574;BME280;10948;48.706;9.258;2023-04-27T04:30:03;97869.97;;;9.48;100.00
21574;BME280;10948;48.706;9.258;2023-04-27T04:32:30;97872.22;;;9.39;100.00
21574;BME280;10948;48.706;9.258;2023-04-27T04:34:55;97872.25;;;9.54;100.00
21574;BME280;10948;48.706;9.258;2023-04-27T04:37:21;97874.69;;;9.42;100.00
21574;BME280;10948;48.706;9.258;2023-04-27T04:39:47;97873.75;;;9.43;100.00
21574;BME280;10948;48.706;9.258;2023-04-27T04:42:12;97869.97;;;9.48;100.00
21574;BME280;10948;48.706;9.258;2023-04-27T04:44:37;97878.38;;;9.53;100.00
21574;BME280;10948;48.706;9.258;2023-04-27T04:47:03;97881.16;;;9.50;100.00
21574;BME280;10948;48.706;9.258;2023-04-27T04:49:28;97881.56;;;9.58;100.00
21574;BME280;10948;48.706;9.258;2023-04-27T04:51:54;97884.56;;;9.51;100.00
21574;BME280;10948;48.706;9.258;2023-04-27T04:54:19;97879.91;;;9.57;100.00
21574;BME280;10948;48.706;9.258;2023-04-27T04:56:44;97878.03;;;9.59;100.00
21574;BME280;10948;48.706;9.258;2023-04-27T04:59:10;97883.31;;;9.58;100.00
21574;BME280;10948;48.706;9.258;2023-04-27T05:01:35;97875.03;;;9.67;100.00
21574;BME280;10948;48.706;9.258;2023-04-27T05:04:00;97879.38;;;9.66;100.00
21574;BME280;10948;48.706;9.258;2023-04-27T05:06:26;97877.28;;;9.57;100.00
21574;BME280;10948;48.706;9.258;2023-04-27T05:08:51;97889.59;;;9.85;100.00
21574;BME280;10948;48.706;9.258;2023-04-27T05:11:16;97887.44;;;9.77;100.00
21574;BME280;10948;48.706;9.258;2023-04-27T05:13:42;97885.06;;;9.88;100.00
21574;BME280;10948;48.706;9.258;2023-04-27T05:16:07;97886.25;;;9.83;100.00
21574;BME280;10948;48.706;9.258;2023-04-27T05:18:33;97879.53;;;9.94;100.00
21574;BME280;10948;48.706;9.258;2023-04-27T05:21:00;97878.53;;;9.97;100.00
21574;BME280;10948;48.706;9.258;2023-04-27T05:23:25;97880.19;;;9.98;100.00
21574;BME280;10948;48.706;9.258;2023-04-27T05:25:51;97879.81;;;10.05;100.00
21574;BME280;10948;48.706;9.258;2023-04-27T05:28:17;97884.59;;;9.97;100.00
21574;BME280;10948;48.706;9.258;2023-04-27T05:30:42;97887.28;;;10.11;100.00
21574;BME280;10948;48.706;9.258;2023-04-27T05:33:07;97894.03;;;10.29;99.60
21574;BME280;10948;48.706;9.258;2023-04-27T05:35:32;97889.00;;;10.26;98.61
21574;BME280;10948;48.706;9.258;2023-04-27T05:37:58;97884.66;;;10.27;98.63
21574;BME280;10948;48.706;9.258;2023-04-27T05:40:23;97888.94;;;10.28;98.91
21574;BME280;10948;48.706;9.258;2023-04-27T05:42:49;97894.09;;;10.43;98.31
21574;BME280;10948;48.706;9.258;2023-04-27T05:45:14;97903.03;;;10.53;98.40
21574;BME280;10948;48.706;9.258;2023-04-27T05:47:40;97898.41;;;10.58;97.47
21574;BME280;10948;48.706;9.258;2023-04-27T05:50:05;97898.16;;;10.77;97.28
21574;BME280;10948;48.706;9.258;2023-04-27T05:52:31;97899.03;;;10.77;96.03
21574;BME280;10948;48.706;9.258;2023-04-27T05:54:56;97898.28;;;10.89;95.98
21574;BME280;10948;48.706;9.258;2023-04-27T05:57:25;97906.31;;;11.14;95.14
21574;BME280;10948;48.706;9.258;2023-04-27T05:59:51;97905.75;;;11.09;94.21
21574;BME280;10948;48.706;9.258;2023-04-27T06:02:17;97906.31;;;11.14;93.47
21574;BME280;10948;48.706;9.258;2023-04-27T06:04:43;97915.25;;;11.38;92.29
21574;BME280;10948;48.706;9.258;2023-04-27T06:07:09;97912.19;;;11.31;91.39
21574;BME280;10948;48.706;9.258;2023-04-27T06:09:35;97916.94;;;11.39;91.54
21574;BME280;10948;48.706;9.258;2023-04-27T06:12:01;97914.41;;;11.51;91.93
21574;BME280;10948;48.706;9.258;2023-04-27T06:14:27;97918.97;;;11.48;90.70
21574;BME280;10948;48.706;9.258;2023-04-27T06:16:52;97918.09;;;11.63;90.76
21574;BME280;10948;48.706;9.258;2023-04-27T06:19:17;97918.78;;;11.79;91.35
21574;BME280;10948;48.706;9.258;2023-04-27T06:21:42;97913.91;;;12.01;90.67
21574;BME280;10948;48.706;9.258;2023-04-27T06:24:08;97913.34;;;12.10;88.39
21574;BME280;10948;48.706;9.258;2023-04-27T06:26:33;97912.94;;;12.16;87.39
21574;BME280;10948;48.706;9.258;2023-04-27T06:28:58;97926.06;;;12.41;87.31
21574;BME280;10948;48.706;9.258;2023-04-27T06:31:24;97921.63;;;12.43;84.94
21574;BME280;10948;48.706;9.258;2023-04-27T06:33:50;97930.03;;;12.73;83.96
21574;BME280;10948;48.706;9.258;2023-04-27T06:36:15;97932.56;;;12.74;82.75
21574;BME280;10948;48.706;9.258;2023-04-27T06:38:40;97935.72;;;12.92;82.22
21574;BME280;10948;48.706;9.258;2023-04-27T06:41:06;97938.19;;;13.20;80.30
21574;BME280;10948;48.706;9.258;2023-04-27T06:43:32;97928.44;;;13.09;79.57
21574;BME280;10948;48.706;9.258;2023-04-27T06:45:58;97934.22;;;13.27;79.50
21574;BME280;10948;48.706;9.258;2023-04-27T06:48:23;97929.53;;;13.93;77.85
21574;BME280;10948;48.706;9.258;2023-04-27T06:50:49;97933.66;;;13.72;75.64
21574;BME280;10948;48.706;9.258;2023-04-27T06:53:14;97927.16;;;13.90;73.74
21574;BME280;10948;48.706;9.258;2023-04-27T06:55:41;97926.56;;;14.46;72.65
21574;BME280;10948;48.706;9.258;2023-04-27T06:58:07;97928.38;;;14.80;70.66
21574;BME280;10948;48.706;9.258;2023-04-27T07:00:32;97928.06;;;15.41;67.60
21574;BME280;10948;48.706;9.258;2023-04-27T07:02:58;97924.41;;;15.87;65.28
21574;BME280;10948;48.706;9.258;2023-04-27T07:05:23;97936.06;;;15.50;63.80
21574;BME280;10948;48.706;9.258;2023-04-27T07:07:48;97937.16;;;15.59;64.79
21574;BME280;10948;48.706;9.258;2023-04-27T07:10:13;97936.44;;;15.57;63.99
21574;BME280;10948;48.706;9.258;2023-04-27T07:12:39;97934.03;;;15.54;64.22
21574;BME280;10948;48.706;9.258;2023-04-27T07:15:05;97931.66;;;16.06;61.58
21574;BME280;10948;48.706;9.258;2023-04-27T07:17:31;97932.72;;;16.14;61.06
21574;BME280;10948;48.706;9.258;2023-04-27T07:19:56;97935.19;;;16.49;60.63
21574;BME280;10948;48.706;9.258;2023-04-27T07:22:21;97926.16;;;17.34;58.10
21574;BME280;10948;48.706;9.258;2023-04-27T07:24:47;97926.25;;;17.74;57.44
21574;BME280;10948;48.706;9.258;2023-04-27T07:27:12;97924.41;;;18.34;56.14
21574;BME280;10948;48.706;9.258;2023-04-27T07:29:39;97931.34;;;19.49;52.43
21574;BME280;10948;48.706;9.258;2023-04-27T07:32:05;97929.28;;;19.89;49.43
21574;BME280;10948;48.706;9.258;2023-04-27T07:34:30;97928.53;;;20.33;49.42
21574;BME280;10948;48.706;9.258;2023-04-27T07:36:56;97927.91;;;20.66;48.66
21574;BME280;10948;48.706;9.258;2023-04-27T07:39:21;97932.03;;;22.23;45.73
21574;BME280;10948;48.706;9.258;2023-04-27T07:41:47;97928.13;;;23.41;44.81
21574;BME280;10948;48.706;9.258;2023-04-27T07:44:14;97934.28;;;23.33;42.95
21574;BME280;10948;48.706;9.258;2023-04-27T07:46:39;97927.38;;;25.24;41.50
21574;BME280;10948;48.706;9.258;2023-04-27T07:49:04;97922.84;;;25.99;38.32
21574;BME280;10948;48.706;9.258;2023-04-27T07:51:30;97928.78;;;24.90;40.26
21574;BME280;10948;48.706;9.258;2023-04-27T07:53:56;97923.63;;;25.33;38.30
21574;BME280;10948;48.706;9.258;2023-04-27T07:56:21;97921.44;;;26.82;37.81
21574;BME280;10948;48.706;9.258;2023-04-27T07:58:46;97927.91;;;28.05;35.50
21574;BME280;10948;48.706;9.258;2023-04-27T08:01:12;97928.34;;;27.54;35.53
21574;BME280;10948;48.706;9.258;2023-04-27T08:03:37;97930.84;;;27.62;35.89
21574;BME280;10948;48.706;9.258;2023-04-27T08:06:03;97937.63;;;28.47;34.86
21574;BME280;10948;48.706;9.258;2023-04-27T08:08:29;97928.94;;;28.38;35.54
21574;BME280;10948;48.706;9.258;2023-04-27T08:10:54;97922.88;;;28.77;35.24
21574;BME280;10948;48.706;9.258;2023-04-27T08:13:20;97930.22;;;27.81;34.56
21574;BME280;10948;48.706;9.258;2023-04-27T08:15:45;97928.63;;;29.53;32.82
21574;BME280;10948;48.706;9.258;2023-04-27T08:18:12;97921.28;;;28.89;33.39
21574;BME280;10948;48.706;9.258;2023-04-27T08:20:37;97923.44;;;28.53;32.33
21574;BME280;10948;48.706;9.258;2023-04-27T08:23:02;97916.47;;;31.35;31.15
21574;BME280;10948;48.706;9.258;2023-04-27T08:25:27;97922.03;;;31.88;30.11
21574;BME280;10948;48.706;9.258;2023-04-27T08:27:53;97909.38;;;30.15;30.96
21574;BME280;10948;48.706;9.258;2023-04-27T08:30:18;97912.56;;;31.31;30.55
21574;BME280;10948;48.706;9.258;2023-04-27T08:32:43;97910.75;;;31.25;30.08
21574;BME280;10948;48.706;9.258;2023-04-27T08:35:09;97912.91;;;30.59;30.51
21574;BME280;10948;48.706;9.258;2023-04-27T08:37:34;97913.09;;;32.66;29.18
21574;BME280;10948;48.706;9.258;2023-04-27T08:40:01;97917.63;;;33.13;29.20
21574;BME280;10948;48.706;9.258;2023-04-27T08:42:27;97910.03;;;31.05;29.54
21574;BME280;10948;48.706;9.258;2023-04-27T08:44:54;97902.34;;;32.30;29.09
21574;BME280;10948;48.706;9.258;2023-04-27T08:47:19;97901.31;;;33.08;28.09
21574;BME280;10948;48.706;9.258;2023-04-27T08:49:45;97891.78;;;31.86;28.19
21574;BME280;10948;48.706;9.258;2023-04-27T08:52:11;97898.44;;;32.26;28.61
21574;BME280;10948;48.706;9.258;2023-04-27T08:54:37;97896.22;;;34.96;25.91
21574;BME280;10948;48.706;9.258;2023-04-27T08:57:07;97899.22;;;34.43;26.40
21574;BME280;10948;48.706;9.258;2023-04-27T08:59:32;97901.06;;;33.39;26.93
21574;BME280;10948;48.706;9.258;2023-04-27T09:02:00;97891.81;;;31.62;28.78
21574;BME280;10948;48.706;9.258;2023-04-27T09:04:34;97892.91;;;30.49;29.51
21574;BME280;10948;48.706;9.258;2023-04-27T09:07:08;97890.53;;;30.28;30.15
21574;BME280;10948;48.706;9.258;2023-04-27T09:09:34;97894.84;;;28.79;31.45
21574;BME280;10948;48.706;9.258;2023-04-27T09:12:01;97890.41;;;27.99;31.45
21574;BME280;10948;48.706;9.258;2023-04-27T09:14:26;97897.84;;;29.04;31.32
21574;BME280;10948;48.706;9.258;2023-04-27T09:16:52;97888.16;;;27.47;31.66
21574;BME280;10948;48.706;9.258;2023-04-27T09:19:23;97886.81;;;28.26;30.95
21574;BME280;10948;48.706;9.258;2023-04-27T09:21:49;97885.59;;;27.88;30.62
21574;BME280;10948;48.706;9.258;2023-04-27T09:24:15;97887.63;;;27.86;31.08
21574;BME280;10948;48.706;9.258;2023-04-27T09:26:40;97891.59;;;26.57;32.36
21574;BME280;10948;48.706;9.258;2023-04-27T09:29:13;97896.78;;;26.80;31.84
21574;BME280;10948;48.706;9.258;2023-04-27T09:31:38;97895.84;;;27.57;30.89
21574;BME280;10948;48.706;9.258;2023-04-27T09:34:04;97886.09;;;27.22;31.38
21574;BME280;10948;48.706;9.258;2023-04-27T09:36:30;97894.34;;;28.50;31.22
21574;BME280;10948;48.706;9.258;2023-04-27T09:38:56;97888.88;;;27.35;31.39
21574;BME280;10948;48.706;9.258;2023-04-27T09:41:21;97883.41;;;26.59;32.13
21574;BME280;10948;48.706;9.258;2023-04-27T09:43:47;97885.41;;;26.57;32.36
21574;BME280;10948;48.706;9.258;2023-04-27T09:46:13;97887.59;;;27.10;32.29
21574;BME280;10948;48.706;9.258;2023-04-27T09:48:39;97889.81;;;25.34;33.11
21574;BME280;10948;48.706;9.258;2023-04-27T09:51:05;97891.16;;;26.75;32.33
21574;BME280;10948;48.706;9.258;2023-04-27T09:53:48;97882.13;;;26.97;31.70
21574;BME280;10948;48.706;9.258;2023-04-27T10:08:59;97874.88;;;27.60;32.61
21574;BME280;10948;48.706;9.258;2023-04-27T10:11:37;97870.41;;;27.67;32.24
21574;BME280;10948;48.706;9.258;2023-04-27T10:14:05;97876.91;;;28.20;32.15
21574;BME280;10948;48.706;9.258;2023-04-27T10:16:38;97875.69;;;28.29;32.18
21574;BME280;10948;48.706;9.258;2023-04-27T10:19:07;97872.94;;;25.56;34.38
21574;BME280;10948;48.706;9.258;2023-04-27T10:21:33;97877.59;;;25.25;35.45
21574;BME280;10948;48.706;9.258;2023-04-27T10:24:04;97870.19;;;26.22;33.48
21574;BME280;10948;48.706;9.258;2023-04-27T10:26:30;97864.94;;;26.64;33.36
21574;BME280;10948;48.706;9.258;2023-04-27T10:29:05;97866.91;;;27.67;32.27
21574;BME280;10948;48.706;9.258;2023-04-27T10:31:34;97866.19;;;27.52;33.19
21574;BME280;10948;48.706;9.258;2023-04-27T10:34:06;97866.22;;;26.68;32.22
21574;BME280;10948;48.706;9.258;2023-04-27T10:36:36;97866.84;;;27.88;31.91
21574;BME280;10948;48.706;9.258;2023-04-27T10:39:02;97874.03;;;28.21;31.78
21574;BME280;10948;48.706;9.258;2023-04-27T10:41:32;97867.84;;;28.21;30.92
21574;BME280;10948;48.706;9.258;2023-04-27T10:44:12;97863.03;;;28.57;30.33
21574;BME280;10948;48.706;9.258;2023-04-27T10:46:48;97854.78;;;26.95;31.53
21574;BME280;10948;48.706;9.258;2023-04-27T10:49:13;97858.53;;;26.44;32.57
21574;BME280;10948;48.706;9.258;2023-04-27T10:51:40;97859.44;;;27.90;31.16
21574;BME280;10948;48.706;9.258;2023-04-27T10:54:05;97852.28;;;28.37;31.25
21574;BME280;10948;48.706;9.258;2023-04-27T10:56:31;97853.28;;;29.16;30.32
21574;BME280;10948;48.706;9.258;2023-04-27T10:59:00;97850.38;;;29.37;31.47
21574;BME280;10948;48.706;9.258;2023-04-27T11:01:26;97855.63;;;28.46;31.01
21574;BME280;10948;48.706;9.258;2023-04-27T11:03:56;97849.38;;;27.58;31.60
21574;BME280;10948;48.706;9.258;2023-04-27T11:06:22;97848.13;;;29.21;31.54
21574;BME280;10948;48.706;9.258;2023-04-27T11:08:48;97849.06;;;28.61;31.25
21574;BME280;10948;48.706;9.258;2023-04-27T11:11:14;97856.81;;;28.37;31.32
21574;BME280;10948;48.706;9.258;2023-04-27T11:13:41;97846.97;;;28.10;31.60
21574;BME280;10948;48.706;9.258;2023-04-27T11:16:07;97842.91;;;28.67;32.17
21574;BME280;10948;48.706;9.258;2023-04-27T11:18:35;97847.41;;;28.73;31.68
21574;BME280;10948;48.706;9.258;2023-04-27T11:21:13;97845.16;;;28.64;32.35
21574;BME280;10948;48.706;9.258;2023-04-27T11:23:39;97841.41;;;28.05;31.47
21574;BME280;10948;48.706;9.258;2023-04-27T11:26:09;97836.50;;;28.15;31.52
21574;BME280;10948;48.706;9.258;2023-04-27T11:28:35;97852.19;;;28.84;32.16
21574;BME280;10948;48.706;9.258;2023-04-27T11:31:03;97844.94;;;28.12;31.38
21574;BME280;10948;48.706;9.258;2023-04-27T11:33:29;97837.97;;;27.77;31.62
21574;BME280;10948;48.706;9.258;2023-04-27T11:35:54;97835.00;;;27.65;32.55
21574;BME280;10948;48.706;9.258;2023-04-27T11:38:20;97829.03;;;28.04;31.92
21574;BME280;10948;48.706;9.258;2023-04-27T11:40:46;97836.00;;;27.92;31.10
21574;BME280;10948;48.706;9.258;2023-04-27T11:43:12;97841.56;;;28.37;31.76
21574;BME280;10948;48.706;9.258;2023-04-27T11:45:40;97844.59;;;28.28;31.12
21574;BME280;10948;48.706;9.258;2023-04-27T11:48:06;97845.34;;;27.75;32.45
21574;BME280;10948;48.706;9.258;2023-04-27T11:50:31;97850.72;;;27.20;32.25
21574;BME280;10948;48.706;9.258;2023-04-27T11:52:59;97847.91;;;27.28;32.94
21574;BME280;10948;48.706;9.258;2023-04-27T11:55:24;97843.63;;;27.12;32.84
21574;BME280;10948;48.706;9.258;2023-04-27T11:57:55;97841.00;;;28.08;32.19
21574;BME280;10948;48.706;9.258;2023-04-27T12:00:20;97846.22;;;27.82;32.67
21574;BME280;10948;48.706;9.258;2023-04-27T12:02:46;97840.09;;;26.49;32.97
21574;BME280;10948;48.706;9.258;2023-04-27T12:05:11;97837.34;;;26.99;32.78
21574;BME280;10948;48.706;9.258;2023-04-27T12:07:37;97832.84;;;26.78;33.13
21574;BME280;10948;48.706;9.258;2023-04-27T12:10:02;97832.44;;;27.02;33.20
21574;BME280;10948;48.706;9.258;2023-04-27T12:12:28;97832.97;;;26.70;32.88
21574;BME280;10948;48.706;9.258;2023-04-27T12:14:53;97824.09;;;27.33;32.80
21574;BME280;10948;48.706;9.258;2023-04-27T12:17:18;97818.50;;;27.62;32.85
21574;BME280;10948;48.706;9.258;2023-04-27T12:19:44;97812.97;;;27.36;33.15
21574;BME280;10948;48.706;9.258;2023-04-27T12:22:09;97817.84;;;26.42;32.88
21574;BME280;10948;48.706;9.258;2023-04-27T12:24:35;97816.69;;;26.65;33.35
21574;BME280;10948;48.706;9.258;2023-04-27T12:27:01;97815.03;;;26.85;33.99
21574;BME280;10948;48.706;9.258;2023-04-27T12:29:27;97811.56;;;26.49;32.83
21574;BME280;10948;48.706;9.258;2023-04-27T12:31:52;97811.06;;;25.09;34.45
21574;BME280;10948;48.706;9.258;2023-04-27T12:34:17;97815.25;;;25.84;34.68
21574;BME280;10948;48.706;9.258;2023-04-27T12:36:43;97810.88;;;25.62;35.00
21574;BME280;10948;48.706;9.258;2023-04-27T12:39:15;97805.69;;;26.04;34.85
21574;BME280;10948;48.706;9.258;2023-04-27T12:41:44;97813.69;;;26.54;34.21
21574;BME280;10948;48.706;9.258;2023-04-27T12:44:10;97814.94;;;27.21;34.12
21574;BME280;10948;48.706;9.258;2023-04-27T12:46:36;97809.66;;;26.08;34.25
21574;BME280;10948;48.706;9.258;2023-04-27T12:49:01;97815.56;;;25.89;34.28
21574;BME280;10948;48.706;9.258;2023-04-27T12:51:27;97806.38;;;25.91;33.89
21574;BME280;10948;48.706;9.258;2023-04-27T12:53:53;97809.22;;;24.95;34.95
21574;BME280;10948;48.706;9.258;2023-04-27T12:56:18;97796.34;;;26.50;34.57
21574;BME280;10948;48.706;9.258;2023-04-27T12:58:43;97800.22;;;26.62;34.23
21574;BME280;10948;48.706;9.258;2023-04-27T13:01:09;97797.94;;;26.23;34.15
21574;BME280;10948;48.706;9.258;2023-04-27T13:03:42;97797.78;;;26.46;34.21
21574;BME280;10948;48.706;9.258;2023-04-27T13:06:08;97799.44;;;24.73;35.88
21574;BME280;10948;48.706;9.258;2023-04-27T13:08:34;97790.59;;;25.09;35.72